createdAt,value
2022-08-08T00:00:52.015Z,985.12
2022-08-08T00:01:00.188Z,985.00
2022-08-08T00:01:09.229Z,985.06
2022-08-08T00:02:33.119Z,985.12
2022-08-08T00:03:32.893Z,984.97
2022-08-08T00:04:03.210Z,985.09
2022-08-08T00:05:10.085Z,985.03
2022-08-08T00:06:04.852Z,985.01
2022-08-08T00:07:13.066Z,985.06
2022-08-08T00:08:04.422Z,985.06
2022-08-08T00:09:08.151Z,984.95
2022-08-08T00:10:03.677Z,985.07
2022-08-08T00:11:13.424Z,985.04
2022-08-08T00:12:10.638Z,985.01
2022-08-08T00:13:03.765Z,985.07
2022-08-08T00:14:48.809Z,984.95
2022-08-08T00:15:05.518Z,985.04
2022-08-08T00:16:03.837Z,985.04
2022-08-08T00:17:04.638Z,985.04
2022-08-08T00:18:05.087Z,984.96
2022-08-08T00:19:02.935Z,984.90
2022-08-08T00:20:03.024Z,985.01
2022-08-08T00:21:08.049Z,984.90
2022-08-08T00:22:04.431Z,984.93
2022-08-08T00:23:06.526Z,984.96
2022-08-08T00:24:03.423Z,984.93
2022-08-08T00:25:03.368Z,984.90
2022-08-08T00:26:03.421Z,984.99
2022-08-08T00:27:06.265Z,984.85
2022-08-08T00:28:03.465Z,984.90
2022-08-08T00:29:08.549Z,984.90
2022-08-08T00:30:03.879Z,984.88
2022-08-08T00:32:36.220Z,984.96
2022-08-08T00:32:36.825Z,984.90
2022-08-08T00:33:04.829Z,984.88
2022-08-08T00:34:19.913Z,984.93
2022-08-08T00:35:04.546Z,984.85
2022-08-08T00:36:03.914Z,984.85
2022-08-08T00:37:08.082Z,984.79
2022-08-08T00:38:03.507Z,984.85
2022-08-08T00:39:03.330Z,984.79
2022-08-08T00:41:14.278Z,984.77
2022-08-08T00:41:15.075Z,984.82
2022-08-08T00:42:14.046Z,984.85
2022-08-08T00:43:20.257Z,984.66
2022-08-08T00:44:03.782Z,984.72
2022-08-08T00:45:03.708Z,984.83
2022-08-08T00:46:03.514Z,984.75
2022-08-08T00:47:19.785Z,984.72
2022-08-08T00:48:29.670Z,984.75
2022-08-08T00:49:03.629Z,984.75
2022-08-08T00:50:03.615Z,984.83
2022-08-08T00:51:07.258Z,984.77
2022-08-08T00:52:03.764Z,984.77
2022-08-08T00:53:07.010Z,984.78
2022-08-08T00:54:16.133Z,984.83
2022-08-08T00:55:03.964Z,984.89
2022-08-08T00:56:02.999Z,984.78
2022-08-08T00:57:03.779Z,984.89
2022-08-08T00:58:05.572Z,984.83
2022-08-08T00:59:05.008Z,984.67
2022-08-08T01:00:06.763Z,984.83
2022-08-08T01:01:04.822Z,984.76
2022-08-08T01:02:03.508Z,984.86
2022-08-08T01:04:04.411Z,984.76
2022-08-08T01:04:05.428Z,984.89
2022-08-08T01:05:04.251Z,984.84
2022-08-08T01:06:03.766Z,984.70
2022-08-08T01:07:06.425Z,984.78
2022-08-08T01:08:03.873Z,984.71
2022-08-08T01:09:40.827Z,984.73
2022-08-08T01:10:06.697Z,984.76
2022-08-08T01:11:08.347Z,984.62
2022-08-08T01:12:03.446Z,984.71
2022-08-08T01:13:03.126Z,984.68
2022-08-08T01:14:03.130Z,984.77
2022-08-08T01:15:07.100Z,984.68
2022-08-08T01:16:04.850Z,984.65
2022-08-08T01:17:05.076Z,984.71
2022-08-08T01:18:04.397Z,984.62
2022-08-08T01:19:42.408Z,984.68
2022-08-08T01:20:04.033Z,984.71
2022-08-08T01:21:03.121Z,984.68
2022-08-08T01:22:15.694Z,984.82
2022-08-08T01:23:03.432Z,984.71
2022-08-08T01:24:16.819Z,984.66
2022-08-08T01:25:05.379Z,984.79
2022-08-08T01:26:13.246Z,984.74
2022-08-08T01:27:10.743Z,984.63
2022-08-08T01:28:03.399Z,984.63
2022-08-08T01:29:06.052Z,984.69
2022-08-08T01:30:04.023Z,984.74
2022-08-08T01:31:06.362Z,984.69
2022-08-08T01:32:17.426Z,984.74
2022-08-08T01:33:27.766Z,984.74
2022-08-08T01:34:03.894Z,984.63
2022-08-08T01:35:12.529Z,984.79
2022-08-08T01:36:04.639Z,984.57
2022-08-08T01:37:06.152Z,984.69
2022-08-08T01:38:03.533Z,984.66
2022-08-08T01:39:03.143Z,984.69
2022-08-08T01:40:03.456Z,984.66
2022-08-08T01:41:02.921Z,984.60
2022-08-08T01:42:03.514Z,984.60
2022-08-08T01:43:03.693Z,984.63
2022-08-08T01:44:03.851Z,984.72
2022-08-08T01:45:04.171Z,984.61
2022-08-08T01:46:06.471Z,984.52
2022-08-08T01:48:15.800Z,984.55
2022-08-08T01:48:31.684Z,984.63
2022-08-08T01:49:06.460Z,984.52
2022-08-08T01:50:03.584Z,984.58
2022-08-08T01:51:30.271Z,984.61
2022-08-08T01:54:03.509Z,984.67
2022-08-08T01:55:20.224Z,984.61
2022-08-08T01:56:30.220Z,984.55
2022-08-08T01:56:31.439Z,984.61
2022-08-08T01:56:34.261Z,984.61
2022-08-08T01:57:03.142Z,984.55
2022-08-08T01:58:13.856Z,984.73
2022-08-08T01:59:03.416Z,984.58
2022-08-08T02:00:04.274Z,984.70
2022-08-08T02:01:15.649Z,984.61
2022-08-08T02:02:05.663Z,984.73
2022-08-08T02:03:07.535Z,984.64
2022-08-08T02:04:04.362Z,984.56
2022-08-08T02:05:02.908Z,984.53
2022-08-08T02:06:03.878Z,984.50
2022-08-08T02:07:04.458Z,984.56
2022-08-08T02:08:04.948Z,984.50
2022-08-08T02:09:18.253Z,984.56
2022-08-08T02:10:12.627Z,984.53
2022-08-08T02:11:04.761Z,984.50
2022-08-08T02:12:04.252Z,984.47
2022-08-08T02:13:03.363Z,984.42
2022-08-08T02:14:03.545Z,984.50
2022-08-08T02:15:03.474Z,984.53
2022-08-08T02:16:04.053Z,984.51
2022-08-08T02:17:17.906Z,984.56
2022-08-08T02:18:03.591Z,984.48
2022-08-08T02:19:41.634Z,984.65
2022-08-08T02:21:02.059Z,984.54
2022-08-08T02:21:08.857Z,984.51
2022-08-08T02:22:04.585Z,984.59
2022-08-08T02:23:04.495Z,984.59
2022-08-08T02:24:04.215Z,984.57
2022-08-08T02:25:11.965Z,984.48
2022-08-08T02:26:05.369Z,984.65
2022-08-08T02:27:03.908Z,984.48
2022-08-08T02:28:03.964Z,984.45
2022-08-08T02:29:05.709Z,984.54
2022-08-08T02:30:03.288Z,984.48
2022-08-08T02:31:19.695Z,984.51
2022-08-08T02:32:05.576Z,984.68
2022-08-08T02:33:07.253Z,984.65
2022-08-08T02:34:09.871Z,984.57
2022-08-08T02:35:12.114Z,984.65
2022-08-08T02:36:05.909Z,984.57
2022-08-08T02:37:03.882Z,984.65
2022-08-08T02:38:05.834Z,984.54
2022-08-08T02:39:58.645Z,984.60
2022-08-08T02:40:03.781Z,984.57
2022-08-08T02:41:58.363Z,984.60
2022-08-08T02:42:10.596Z,984.51
2022-08-08T02:44:57.007Z,984.63
2022-08-08T02:44:57.677Z,984.66
2022-08-08T02:45:04.138Z,984.66
2022-08-08T02:46:08.373Z,984.77
2022-08-08T02:47:03.047Z,984.55
2022-08-08T02:48:03.728Z,984.55
2022-08-08T02:49:04.776Z,984.55
2022-08-08T02:50:02.943Z,984.63
2022-08-08T02:51:03.138Z,984.52
2022-08-08T02:52:38.689Z,984.58
2022-08-08T02:53:04.450Z,984.58
2022-08-08T02:54:03.259Z,984.52
2022-08-08T02:55:03.138Z,984.61
2022-08-08T02:56:03.295Z,984.52
2022-08-08T02:57:05.403Z,984.64
2022-08-08T02:58:03.468Z,984.55
2022-08-08T02:59:37.614Z,984.55
2022-08-08T03:00:32.059Z,984.49
2022-08-08T03:01:05.569Z,984.55
2022-08-08T03:02:04.159Z,984.44
2022-08-08T03:03:03.364Z,984.61
2022-08-08T03:05:11.158Z,984.58
2022-08-08T03:05:11.161Z,984.58
2022-08-08T03:06:07.543Z,984.44
2022-08-08T03:07:07.740Z,984.44
2022-08-08T03:08:05.241Z,984.61
2022-08-08T03:09:03.576Z,984.58
2022-08-08T03:10:04.416Z,984.61
2022-08-08T03:11:05.442Z,984.47
2022-08-08T03:12:08.141Z,984.58
2022-08-08T03:15:54.676Z,984.53
2022-08-08T03:16:05.029Z,984.59
2022-08-08T03:16:05.054Z,984.70
2022-08-08T03:16:06.836Z,984.50
2022-08-08T03:17:03.650Z,984.62
2022-08-08T03:18:07.026Z,984.67
2022-08-08T03:19:04.262Z,984.65
2022-08-08T03:20:04.285Z,984.67
2022-08-08T03:21:14.403Z,984.59
2022-08-08T03:22:04.166Z,984.56
2022-08-08T03:23:05.295Z,984.59
2022-08-08T03:24:03.862Z,984.50
2022-08-08T03:25:17.855Z,984.59
2022-08-08T03:26:03.691Z,984.59
2022-08-08T03:27:03.049Z,984.62
2022-08-08T03:28:02.951Z,984.70
2022-08-08T03:29:03.801Z,984.59
2022-08-08T03:30:03.623Z,984.59
2022-08-08T03:31:25.241Z,984.59
2022-08-08T03:32:07.347Z,984.62
2022-08-08T03:34:00.302Z,984.45
2022-08-08T03:34:04.608Z,984.54
2022-08-08T03:35:04.322Z,984.51
2022-08-08T03:36:03.865Z,984.48
2022-08-08T03:38:55.191Z,984.48
2022-08-08T03:39:07.836Z,984.54
2022-08-08T03:39:16.176Z,984.51
2022-08-08T03:40:04.315Z,984.62
2022-08-08T03:42:28.942Z,984.60
2022-08-08T03:42:30.718Z,984.63
2022-08-08T03:43:20.434Z,984.57
2022-08-08T03:44:03.436Z,984.68
2022-08-08T03:46:09.152Z,984.63
2022-08-08T03:46:09.666Z,984.66
2022-08-08T03:47:19.768Z,984.66
2022-08-08T03:48:07.419Z,984.49
2022-08-08T03:50:01.782Z,984.60
2022-08-08T03:50:04.277Z,984.51
2022-08-08T03:51:03.293Z,984.60
2022-08-08T03:52:03.492Z,984.46
2022-08-08T03:53:03.600Z,984.57
2022-08-08T03:54:03.321Z,984.49
2022-08-08T03:55:55.401Z,984.55
2022-08-08T03:56:09.411Z,984.49
2022-08-08T03:58:36.543Z,984.57
2022-08-08T03:58:37.951Z,984.60
2022-08-08T03:59:04.734Z,984.60
2022-08-08T04:00:12.103Z,984.57
2022-08-08T04:01:26.001Z,984.60
2022-08-08T04:02:36.940Z,984.63
2022-08-08T04:03:04.504Z,984.55
2022-08-08T04:04:03.897Z,984.75
2022-08-08T04:05:10.553Z,984.58
2022-08-08T04:06:03.683Z,984.66
2022-08-08T04:07:03.667Z,984.72
2022-08-08T04:08:03.807Z,984.66
2022-08-08T04:09:11.908Z,984.69
2022-08-08T04:10:06.143Z,984.63
2022-08-08T04:11:17.568Z,984.63
2022-08-08T04:12:03.931Z,984.75
2022-08-08T04:13:18.853Z,984.75
2022-08-08T04:14:35.878Z,984.69
2022-08-08T04:15:03.492Z,984.79
2022-08-08T04:16:05.873Z,984.60
2022-08-08T04:17:15.800Z,984.60
2022-08-08T04:18:03.491Z,984.75
2022-08-08T04:19:03.466Z,984.63
2022-08-08T04:20:05.159Z,984.60
2022-08-08T04:21:06.717Z,984.72
2022-08-08T04:22:03.494Z,984.69
2022-08-08T04:23:07.830Z,984.75
2022-08-08T04:24:29.094Z,984.69
2022-08-08T04:25:03.723Z,984.75
2022-08-08T04:26:09.666Z,984.69
2022-08-08T04:27:10.578Z,984.82
2022-08-08T04:28:41.640Z,984.79
2022-08-08T04:29:04.433Z,984.79
2022-08-08T04:30:19.871Z,984.77
2022-08-08T04:31:06.560Z,984.77
2022-08-08T04:32:07.383Z,984.77
2022-08-08T04:33:03.012Z,984.66
2022-08-08T04:34:03.034Z,984.72
2022-08-08T04:35:03.009Z,984.79
2022-08-08T04:36:04.788Z,984.79
2022-08-08T04:37:04.510Z,984.77
2022-08-08T04:38:03.523Z,984.90
2022-08-08T04:40:07.678Z,984.81
2022-08-08T04:40:10.910Z,984.61
2022-08-08T04:41:07.928Z,984.58
2022-08-08T04:42:03.732Z,984.74
2022-08-08T04:43:05.913Z,984.59
2022-08-08T04:44:04.668Z,984.68
2022-08-08T04:45:04.271Z,984.73
2022-08-08T04:46:03.952Z,984.69
2022-08-08T04:47:03.859Z,984.85
2022-08-08T04:48:03.879Z,984.74
2022-08-08T04:49:06.639Z,984.81
2022-08-08T04:50:06.378Z,984.89
2022-08-08T04:51:03.188Z,984.91
2022-08-08T04:52:04.496Z,984.94
2022-08-08T04:53:52.888Z,984.85
2022-08-08T04:54:42.643Z,984.87
2022-08-08T04:55:06.502Z,984.92
2022-08-08T04:56:03.581Z,984.89
2022-08-08T04:57:04.232Z,984.91
2022-08-08T04:58:11.175Z,984.90
2022-08-08T04:59:03.869Z,984.99
2022-08-08T05:00:03.952Z,985.07
2022-08-08T05:01:11.540Z,984.98
2022-08-08T05:02:04.439Z,985.20
2022-08-08T05:03:06.043Z,985.28
2022-08-08T05:04:12.929Z,985.31
2022-08-08T05:05:05.276Z,985.22
2022-08-08T05:06:18.555Z,985.15
2022-08-08T05:07:06.285Z,985.23
2022-08-08T05:08:03.765Z,985.23
2022-08-08T05:09:06.496Z,985.36
2022-08-08T05:10:04.155Z,985.41
2022-08-08T05:11:03.706Z,985.50
2022-08-08T05:12:03.727Z,985.55
2022-08-08T05:13:04.871Z,985.52
2022-08-08T05:14:03.726Z,985.51
2022-08-08T05:15:05.585Z,985.48
2022-08-08T05:17:00.776Z,985.56
2022-08-08T05:17:11.138Z,985.67
2022-08-08T05:18:04.370Z,985.67
2022-08-08T05:19:05.463Z,985.78
2022-08-08T05:20:15.079Z,985.78
2022-08-08T05:21:06.296Z,985.81
2022-08-08T05:22:03.527Z,985.86
2022-08-08T05:23:04.225Z,985.94
2022-08-08T05:24:10.585Z,985.77
2022-08-08T05:25:03.649Z,985.88
2022-08-08T05:26:03.757Z,986.11
2022-08-08T05:27:03.720Z,985.96
2022-08-08T05:28:08.027Z,986.16
2022-08-08T05:29:06.701Z,986.13
2022-08-08T05:30:03.924Z,986.27
2022-08-08T05:32:06.067Z,986.13
2022-08-08T05:32:07.623Z,986.24
2022-08-08T05:33:03.762Z,986.30
2022-08-08T05:34:07.092Z,986.44
2022-08-08T05:35:05.826Z,986.38
2022-08-08T05:36:04.759Z,986.40
2022-08-08T05:37:16.112Z,986.46
2022-08-08T05:38:04.650Z,986.54
2022-08-08T05:39:03.505Z,986.56
2022-08-08T05:40:04.110Z,986.56
2022-08-08T05:41:03.959Z,986.48
2022-08-08T05:42:03.551Z,986.58
2022-08-08T05:44:02.645Z,986.70
2022-08-08T05:44:05.189Z,986.61
2022-08-08T05:45:41.407Z,986.63
2022-08-08T05:46:09.565Z,986.66
2022-08-08T05:47:06.098Z,986.80
2022-08-08T05:48:09.709Z,986.77
2022-08-08T05:49:11.603Z,987.03
2022-08-08T05:50:04.722Z,986.79
2022-08-08T05:51:16.250Z,987.03
2022-08-08T05:52:03.047Z,986.96
2022-08-08T05:54:26.627Z,986.99
2022-08-08T05:54:43.178Z,987.08
2022-08-08T05:55:10.216Z,987.08
2022-08-08T05:56:15.506Z,986.96
2022-08-08T05:57:06.099Z,987.13
2022-08-08T05:58:17.489Z,987.16
2022-08-08T05:59:04.249Z,987.13
2022-08-08T06:00:25.456Z,987.13
2022-08-08T06:01:05.309Z,987.18
2022-08-08T06:02:03.219Z,987.21
2022-08-08T06:03:03.352Z,987.27
2022-08-08T06:04:13.646Z,987.27
2022-08-08T06:05:34.486Z,987.32
2022-08-08T06:06:06.417Z,987.29
2022-08-08T06:07:03.906Z,987.23
2022-08-08T06:08:33.794Z,987.41
2022-08-08T06:10:02.225Z,987.32
2022-08-08T06:10:02.620Z,987.29
2022-08-08T06:11:04.539Z,987.40
2022-08-08T06:12:03.345Z,987.40
2022-08-08T06:13:04.048Z,987.34
2022-08-08T06:14:04.935Z,987.46
2022-08-08T06:15:06.088Z,987.43
2022-08-08T06:16:03.638Z,987.54
2022-08-08T06:17:03.653Z,987.48
2022-08-08T06:18:22.210Z,987.45
2022-08-08T06:19:04.454Z,987.57
2022-08-08T06:20:03.823Z,987.54
2022-08-08T06:21:33.423Z,987.54
2022-08-08T06:22:33.301Z,987.54
2022-08-08T06:23:03.694Z,987.53
2022-08-08T06:24:22.744Z,987.59
2022-08-08T06:25:03.149Z,987.59
2022-08-08T06:26:50.162Z,987.62
2022-08-08T06:27:03.115Z,987.71
2022-08-08T06:28:04.099Z,987.71
2022-08-08T06:29:48.936Z,987.71
2022-08-08T06:30:03.568Z,987.70
2022-08-08T06:31:03.966Z,987.70
2022-08-08T06:32:14.934Z,987.82
2022-08-08T06:33:03.790Z,987.79
2022-08-08T06:34:28.546Z,987.82
2022-08-08T06:36:05.119Z,987.76
2022-08-08T06:36:10.341Z,987.78
2022-08-08T06:37:25.555Z,987.81
2022-08-08T06:38:03.161Z,987.81
2022-08-08T06:39:07.422Z,987.92
2022-08-08T06:40:04.008Z,987.95
2022-08-08T06:41:03.318Z,987.87
2022-08-08T06:42:03.428Z,987.95
2022-08-08T06:43:03.331Z,987.98
2022-08-08T06:44:03.505Z,988.00
2022-08-08T06:45:05.897Z,988.03
2022-08-08T06:46:03.608Z,987.97
2022-08-08T06:47:03.606Z,987.94
2022-08-08T06:48:05.178Z,988.00
2022-08-08T06:49:06.079Z,988.00
2022-08-08T06:50:04.631Z,988.02
2022-08-08T06:51:08.902Z,987.91
2022-08-08T06:52:03.636Z,987.96
2022-08-08T06:53:17.505Z,988.05
2022-08-08T06:54:03.701Z,987.96
2022-08-08T06:55:05.884Z,988.02
2022-08-08T06:56:03.849Z,988.08
2022-08-08T06:57:04.689Z,988.16
2022-08-08T06:58:04.868Z,988.07
2022-08-08T06:59:12.688Z,988.01
2022-08-08T07:00:13.092Z,988.01
2022-08-08T07:02:27.803Z,988.01
2022-08-08T07:02:29.745Z,988.13
2022-08-08T07:03:05.346Z,988.19
2022-08-08T07:04:43.352Z,988.16
2022-08-08T07:05:05.274Z,988.22
2022-08-08T07:06:03.671Z,988.13
2022-08-08T07:07:12.209Z,988.19
2022-08-08T07:08:04.991Z,988.26
2022-08-08T07:09:04.340Z,988.22
2022-08-08T07:10:08.533Z,988.25
2022-08-08T07:11:03.218Z,988.26
2022-08-08T07:12:03.457Z,988.35
2022-08-08T07:13:03.912Z,988.26
2022-08-08T07:14:03.598Z,988.29
2022-08-08T07:15:04.849Z,988.24
2022-08-08T07:16:12.135Z,988.21
2022-08-08T07:17:14.177Z,988.16
2022-08-08T07:18:41.355Z,988.24
2022-08-08T07:19:03.332Z,988.29
2022-08-08T07:20:03.427Z,988.32
2022-08-08T07:21:20.444Z,988.24
2022-08-08T07:22:12.225Z,988.32
2022-08-08T07:23:05.058Z,988.41
2022-08-08T07:24:04.923Z,988.32
2022-08-08T07:25:07.118Z,988.29
2022-08-08T07:26:03.003Z,988.47
2022-08-08T07:27:05.891Z,988.38
2022-08-08T07:28:08.714Z,988.26
2022-08-08T07:29:11.459Z,988.21
2022-08-08T07:30:15.023Z,988.24
2022-08-08T07:31:03.233Z,988.21
2022-08-08T07:32:03.284Z,988.26
2022-08-08T07:33:03.716Z,988.24
2022-08-08T07:34:03.282Z,988.29
2022-08-08T07:35:08.542Z,988.29
2022-08-08T07:36:04.589Z,988.32
2022-08-08T07:37:13.477Z,988.26
2022-08-08T07:38:18.290Z,988.32
2022-08-08T07:39:04.065Z,988.37
2022-08-08T07:40:03.572Z,988.32
2022-08-08T07:41:05.225Z,988.40
2022-08-08T07:42:05.630Z,988.28
2022-08-08T07:43:08.979Z,988.31
2022-08-08T07:44:43.569Z,988.34
2022-08-08T07:45:03.652Z,988.40
2022-08-08T07:46:29.315Z,988.46
2022-08-08T07:47:03.631Z,988.26
2022-08-08T07:48:05.583Z,988.43
2022-08-08T07:49:04.233Z,988.31
2022-08-08T07:50:03.651Z,988.26
2022-08-08T07:51:04.836Z,988.34
2022-08-08T07:52:04.317Z,988.28
2022-08-08T07:53:03.867Z,988.31
2022-08-08T07:54:04.108Z,988.28
2022-08-08T07:55:03.310Z,988.36
2022-08-08T07:56:03.139Z,988.30
2022-08-08T07:57:03.157Z,988.30
2022-08-08T07:58:03.860Z,988.36
2022-08-08T07:59:03.304Z,988.27
2022-08-08T08:00:03.329Z,988.30
2022-08-08T08:01:05.533Z,988.36
2022-08-08T08:02:38.409Z,988.30
2022-08-08T08:03:04.509Z,988.42
2022-08-08T08:04:04.073Z,988.33
2022-08-08T08:05:04.041Z,988.42
2022-08-08T08:06:03.976Z,988.44
2022-08-08T08:07:04.733Z,988.33
2022-08-08T08:08:03.620Z,988.27
2022-08-08T08:09:05.354Z,988.38
2022-08-08T08:10:05.176Z,988.35
2022-08-08T08:11:03.795Z,988.35
2022-08-08T08:12:03.843Z,988.44
2022-08-08T08:13:05.129Z,988.38
2022-08-08T08:14:09.691Z,988.41
2022-08-08T08:15:05.315Z,988.38
2022-08-08T08:16:03.019Z,988.35
2022-08-08T08:17:03.022Z,988.26
2022-08-08T08:18:03.208Z,988.44
2022-08-08T08:19:03.124Z,988.29
2022-08-08T08:20:03.216Z,988.43
2022-08-08T08:21:14.529Z,988.24
2022-08-08T08:22:08.280Z,988.35
2022-08-08T08:23:04.075Z,988.35
2022-08-08T08:24:03.465Z,988.43
2022-08-08T08:25:08.626Z,988.46
2022-08-08T08:26:04.231Z,988.49
2022-08-08T08:27:04.139Z,988.40
2022-08-08T08:28:03.979Z,988.40
2022-08-08T08:29:06.291Z,988.43
2022-08-08T08:30:03.754Z,988.46
2022-08-08T08:31:04.940Z,988.32
2022-08-08T08:32:06.255Z,988.37
2022-08-08T08:33:03.006Z,988.32
2022-08-08T08:34:05.177Z,988.29
2022-08-08T08:35:03.914Z,988.40
2022-08-08T08:36:21.769Z,988.49
2022-08-08T08:37:08.715Z,988.52
2022-08-08T08:38:18.838Z,988.46
2022-08-08T08:39:17.232Z,988.49
2022-08-08T08:40:03.880Z,988.49
2022-08-08T08:41:16.774Z,988.61
2022-08-08T08:42:03.745Z,988.50
2022-08-08T08:43:03.869Z,988.67
2022-08-08T08:44:15.481Z,988.59
2022-08-08T08:45:23.752Z,988.62
2022-08-08T08:46:06.075Z,988.68
2022-08-08T08:47:08.410Z,988.59
2022-08-08T08:48:04.686Z,988.62
2022-08-08T08:49:03.037Z,988.65
2022-08-08T08:50:03.031Z,988.59
2022-08-08T08:51:03.551Z,988.56
2022-08-08T08:52:03.208Z,988.56
2022-08-08T08:53:54.334Z,988.59
2022-08-08T08:54:03.843Z,988.44
2022-08-08T08:55:05.390Z,988.62
2022-08-08T08:56:04.436Z,988.50
2022-08-08T08:57:17.472Z,988.50
2022-08-08T08:58:04.128Z,988.59
2022-08-08T08:59:05.542Z,988.47
2022-08-08T09:00:11.432Z,988.47
2022-08-08T09:01:13.027Z,988.47
2022-08-08T09:02:05.191Z,988.65
2022-08-08T09:03:03.423Z,988.53
2022-08-08T09:04:03.236Z,988.56
2022-08-08T09:05:03.231Z,988.53
2022-08-08T09:06:28.891Z,988.62
2022-08-08T09:07:13.564Z,988.59
2022-08-08T09:08:20.665Z,988.59
2022-08-08T09:09:03.188Z,988.53
2022-08-08T09:10:05.186Z,988.50
2022-08-08T09:11:03.200Z,988.53
2022-08-08T09:12:08.618Z,988.62
2022-08-08T09:13:03.177Z,988.65
2022-08-08T09:14:03.116Z,988.59
2022-08-08T09:15:06.513Z,988.65
2022-08-08T09:16:04.360Z,988.59
2022-08-08T09:17:17.678Z,988.59
2022-08-08T09:18:04.116Z,988.59
2022-08-08T09:19:03.572Z,988.50
2022-08-08T09:22:06.004Z,988.62
2022-08-08T09:22:06.299Z,988.56
2022-08-08T09:22:06.900Z,988.56
2022-08-08T09:23:03.898Z,988.53
2022-08-08T09:24:04.384Z,988.47
2022-08-08T09:25:04.209Z,988.65
2022-08-08T09:26:03.535Z,988.62
2022-08-08T09:27:03.114Z,988.73
2022-08-08T09:28:03.997Z,988.73
2022-08-08T09:29:09.573Z,988.68
2022-08-08T09:30:03.146Z,988.71
2022-08-08T09:31:13.300Z,988.74
2022-08-08T09:32:03.299Z,988.71
2022-08-08T09:34:15.627Z,988.68
2022-08-08T09:34:34.110Z,988.62
2022-08-08T09:35:08.688Z,988.74
2022-08-08T09:36:04.751Z,988.68
2022-08-08T09:38:01.235Z,988.53
2022-08-08T09:38:09.477Z,988.53
2022-08-08T09:39:15.708Z,988.62
2022-08-08T09:40:04.070Z,988.74
2022-08-08T09:41:03.274Z,988.74
2022-08-08T09:42:22.438Z,988.74
2022-08-08T09:43:23.015Z,988.74
2022-08-08T09:44:15.242Z,988.68
2022-08-08T09:45:15.420Z,988.59
2022-08-08T09:46:06.546Z,988.59
2022-08-08T09:47:25.450Z,988.65
2022-08-08T09:48:23.569Z,988.68
2022-08-08T09:49:49.694Z,988.80
2022-08-08T09:50:11.617Z,988.71
2022-08-08T09:51:05.783Z,988.62
2022-08-08T09:52:11.379Z,988.65
2022-08-08T09:53:54.572Z,988.56
2022-08-08T09:54:18.474Z,988.56
2022-08-08T09:55:05.406Z,988.65
2022-08-08T09:56:09.532Z,988.65
2022-08-08T09:57:03.493Z,988.59
2022-08-08T09:58:05.212Z,988.56
2022-08-08T09:59:43.080Z,988.62
2022-08-08T10:00:49.474Z,988.53
2022-08-08T10:01:58.811Z,988.74
2022-08-08T10:02:14.899Z,988.65
2022-08-08T10:03:04.163Z,988.68
2022-08-08T10:04:05.588Z,988.73
2022-08-08T10:05:15.612Z,988.65
2022-08-08T10:06:03.259Z,988.59
2022-08-08T10:07:07.924Z,988.53
2022-08-08T10:08:03.296Z,988.67
2022-08-08T10:09:03.163Z,988.76
2022-08-08T10:10:07.481Z,988.73
2022-08-08T10:12:28.492Z,988.62
2022-08-08T10:12:38.343Z,988.68
2022-08-08T10:13:15.169Z,988.71
2022-08-08T10:14:06.523Z,988.74
2022-08-08T10:15:18.647Z,988.56
2022-08-08T10:16:05.298Z,988.74
2022-08-08T10:17:57.663Z,988.56
2022-08-08T10:18:17.114Z,988.77
2022-08-08T10:19:03.247Z,988.65
2022-08-08T10:20:04.297Z,988.68
2022-08-08T10:21:25.549Z,988.65
2022-08-08T10:22:05.077Z,988.71
2022-08-08T10:23:03.134Z,988.68
2022-08-08T10:24:03.463Z,988.59
2022-08-08T10:25:02.987Z,988.68
2022-08-08T10:26:03.721Z,988.71
2022-08-08T10:27:03.196Z,988.53
2022-08-08T10:28:03.544Z,988.59
2022-08-08T10:29:03.341Z,988.44
2022-08-08T10:30:05.012Z,988.41
2022-08-08T10:31:04.481Z,988.47
2022-08-08T10:32:03.744Z,988.50
2022-08-08T10:33:04.915Z,988.59
2022-08-08T10:34:21.013Z,988.44
2022-08-08T10:35:03.873Z,988.53
2022-08-08T10:36:21.153Z,988.35
2022-08-08T10:37:05.775Z,988.53
2022-08-08T10:38:05.762Z,988.47
2022-08-08T10:39:07.925Z,988.38
2022-08-08T10:40:08.108Z,988.38
2022-08-08T10:41:03.877Z,988.50
2022-08-08T10:42:17.373Z,988.38
2022-08-08T10:43:02.998Z,988.38
2022-08-08T10:44:03.265Z,988.47
2022-08-08T10:45:09.615Z,988.38
2022-08-08T10:46:03.889Z,988.35
2022-08-08T10:47:05.426Z,988.43
2022-08-08T10:48:03.386Z,988.24
2022-08-08T10:49:03.416Z,988.29
2022-08-08T10:50:04.976Z,988.29
2022-08-08T10:51:03.443Z,988.40
2022-08-08T10:52:03.720Z,988.21
2022-08-08T10:53:07.638Z,988.37
2022-08-08T10:54:03.514Z,988.46
2022-08-08T10:55:06.778Z,988.28
2022-08-08T10:56:04.787Z,988.23
2022-08-08T10:57:04.394Z,988.20
2022-08-08T10:58:06.605Z,988.17
2022-08-08T10:59:04.010Z,988.20
2022-08-08T11:00:03.720Z,988.08
2022-08-08T11:01:10.784Z,988.14
2022-08-08T11:02:03.933Z,988.17
2022-08-08T11:03:03.345Z,988.08
2022-08-08T11:04:05.113Z,988.28
2022-08-08T11:05:14.776Z,988.08
2022-08-08T11:06:02.937Z,988.20
2022-08-08T11:07:03.006Z,988.23
2022-08-08T11:08:42.078Z,988.28
2022-08-08T11:09:20.282Z,988.11
2022-08-08T11:10:03.867Z,988.11
2022-08-08T11:12:00.449Z,988.05
2022-08-08T11:12:14.421Z,988.02
2022-08-08T11:13:28.299Z,987.99
2022-08-08T11:14:02.980Z,987.93
2022-08-08T11:15:03.836Z,988.08
2022-08-08T11:16:11.475Z,988.02
2022-08-08T11:17:04.155Z,987.99
2022-08-08T11:18:03.122Z,988.13
2022-08-08T11:19:03.196Z,988.01
2022-08-08T11:20:13.246Z,988.07
2022-08-08T11:21:19.442Z,988.01
2022-08-08T11:22:04.649Z,988.04
2022-08-08T11:23:06.112Z,987.95
2022-08-08T11:24:03.562Z,987.92
2022-08-08T11:25:16.397Z,987.87
2022-08-08T11:26:03.830Z,987.87
2022-08-08T11:27:23.263Z,987.95
2022-08-08T11:28:05.135Z,987.92
2022-08-08T11:29:04.781Z,987.87
2022-08-08T11:30:24.728Z,987.98
2022-08-08T11:31:04.733Z,987.84
2022-08-08T11:32:02.999Z,988.13
2022-08-08T11:33:12.173Z,988.01
2022-08-08T11:34:25.860Z,988.13
2022-08-08T11:35:37.890Z,988.13
2022-08-08T11:36:05.121Z,988.13
2022-08-08T11:37:15.769Z,988.10
2022-08-08T11:38:54.524Z,988.04
2022-08-08T11:39:03.326Z,988.07
2022-08-08T11:40:04.257Z,988.07
2022-08-08T11:41:03.681Z,988.07
2022-08-08T11:42:09.439Z,987.96
2022-08-08T11:43:11.724Z,988.01
2022-08-08T11:44:03.489Z,988.04
2022-08-08T11:45:03.731Z,988.10
2022-08-08T11:46:18.561Z,988.13
2022-08-08T11:47:17.091Z,988.04
2022-08-08T11:48:09.941Z,987.98
2022-08-08T11:49:05.355Z,988.10
2022-08-08T11:50:03.407Z,988.04
2022-08-08T11:51:49.656Z,988.13
2022-08-08T11:52:03.696Z,988.02
2022-08-08T11:53:06.786Z,988.10
2022-08-08T11:54:04.704Z,987.99
2022-08-08T11:55:06.345Z,988.14
2022-08-08T11:56:03.345Z,988.14
2022-08-08T11:57:05.008Z,988.08
2022-08-08T11:58:15.711Z,988.19
2022-08-08T11:59:02.981Z,988.08
2022-08-08T12:00:06.775Z,988.08
2022-08-08T12:01:16.278Z,988.08
2022-08-08T12:02:32.955Z,988.14
2022-08-08T12:03:03.169Z,988.17
2022-08-08T12:04:03.567Z,988.05
2022-08-08T12:05:03.191Z,988.08
2022-08-08T12:07:04.284Z,988.05
2022-08-08T12:08:04.803Z,988.10
2022-08-08T12:09:03.250Z,988.04
2022-08-08T12:10:09.184Z,988.01
2022-08-08T12:11:03.509Z,988.07
2022-08-08T12:12:03.255Z,988.04
2022-08-08T12:13:03.446Z,988.13
2022-08-08T12:14:05.018Z,988.10
2022-08-08T12:15:05.352Z,988.05
2022-08-08T12:16:03.427Z,988.11
2022-08-08T12:17:03.474Z,988.11
2022-08-08T12:18:03.570Z,988.20
2022-08-08T12:19:06.177Z,988.11
2022-08-08T12:20:04.384Z,988.11
2022-08-08T12:21:08.171Z,988.08
2022-08-08T12:22:12.875Z,987.93
2022-08-08T12:23:03.730Z,987.93
2022-08-08T12:24:03.626Z,988.08
2022-08-08T12:25:03.699Z,987.96
2022-08-08T12:26:05.089Z,987.99
2022-08-08T12:27:07.439Z,987.96
2022-08-08T12:28:04.833Z,988.05